sensor_id;sensor_type;location;lat;lon;timestamp;P1;durP1;ratioP1;P2;durP2;ratioP2
51286;SDS011;37364;46.974;18.916;2023-04-25T00:02:10;3.22;;;1.70;;
51286;SDS011;37364;46.974;18.916;2023-04-25T00:04:41;3.85;;;2.25;;
51286;SDS011;37364;46.974;18.916;2023-04-25T00:07:15;2.28;;;2.17;;
51286;SDS011;37364;46.974;18.916;2023-04-25T00:09:46;4.78;;;2.40;;
51286;SDS011;37364;46.974;18.916;2023-04-25T00:12:16;2.53;;;2.20;;
51286;SDS011;37364;46.974;18.916;2023-04-25T00:14:49;2.33;;;2.13;;
51286;SDS011;37364;46.974;18.916;2023-04-25T00:17:19;2.27;;;2.13;;
51286;SDS011;37364;46.974;18.916;2023-04-25T00:19:51;2.40;;;2.20;;
51286;SDS011;37364;46.974;18.916;2023-04-25T00:22:22;3.28;;;2.13;;
51286;SDS011;37364;46.974;18.916;2023-04-25T00:24:57;2.80;;;2.55;;
51286;SDS011;37364;46.974;18.916;2023-04-25T00:27:29;7.55;;;2.90;;
51286;SDS011;37364;46.974;18.916;2023-04-25T00:30:02;2.97;;;2.67;;
51286;SDS011;37364;46.974;18.916;2023-04-25T00:32:35;6.75;;;2.90;;
51286;SDS011;37364;46.974;18.916;2023-04-25T00:35:08;3.97;;;2.85;;
51286;SDS011;37364;46.974;18.916;2023-04-25T00:37:42;3.17;;;2.88;;
51286;SDS011;37364;46.974;18.916;2023-04-25T00:40:17;3.88;;;2.80;;
51286;SDS011;37364;46.974;18.916;2023-04-25T00:42:53;5.18;;;3.05;;
51286;SDS011;37364;46.974;18.916;2023-04-25T00:45:29;3.60;;;3.30;;
51286;SDS011;37364;46.974;18.916;2023-04-25T00:48:00;8.00;;;3.35;;
51286;SDS011;37364;46.974;18.916;2023-04-25T00:50:33;5.07;;;3.80;;
51286;SDS011;37364;46.974;18.916;2023-04-25T00:53:03;4.32;;;3.92;;
51286;SDS011;37364;46.974;18.916;2023-04-25T00:55:36;5.30;;;4.80;;
51286;SDS011;37364;46.974;18.916;2023-04-25T00:58:06;7.18;;;4.57;;
51286;SDS011;37364;46.974;18.916;2023-04-25T01:00:39;4.63;;;4.20;;
51286;SDS011;37364;46.974;18.916;2023-04-25T01:03:11;5.30;;;4.80;;
51286;SDS011;37364;46.974;18.916;2023-04-25T01:05:43;4.72;;;4.22;;
51286;SDS011;37364;46.974;18.916;2023-04-25T01:08:13;8.85;;;5.68;;
51286;SDS011;37364;46.974;18.916;2023-04-25T01:10:44;5.07;;;4.05;;
51286;SDS011;37364;46.974;18.916;2023-04-25T01:13:15;4.45;;;4.13;;
51286;SDS011;37364;46.974;18.916;2023-04-25T01:15:49;6.18;;;4.82;;
51286;SDS011;37364;46.974;18.916;2023-04-25T01:18:23;10.70;;;4.20;;
51286;SDS011;37364;46.974;18.916;2023-04-25T01:20:55;8.50;;;3.95;;
51286;SDS011;37364;46.974;18.916;2023-04-25T01:23:33;5.38;;;4.28;;
51286;SDS011;37364;46.974;18.916;2023-04-25T01:26:04;4.03;;;3.63;;
51286;SDS011;37364;46.974;18.916;2023-04-25T01:28:37;7.65;;;4.07;;
51286;SDS011;37364;46.974;18.916;2023-04-25T01:31:11;4.45;;;3.58;;
51286;SDS011;37364;46.974;18.916;2023-04-25T01:33:45;5.07;;;3.60;;
51286;SDS011;37364;46.974;18.916;2023-04-25T01:36:16;4.82;;;3.63;;
51286;SDS011;37364;46.974;18.916;2023-04-25T01:38:49;10.60;;;4.10;;
51286;SDS011;37364;46.974;18.916;2023-04-25T01:41:22;3.50;;;3.08;;
51286;SDS011;37364;46.974;18.916;2023-04-25T01:43:53;3.47;;;3.25;;
51286;SDS011;37364;46.974;18.916;2023-04-25T01:46:24;9.10;;;2.92;;
51286;SDS011;37364;46.974;18.916;2023-04-25T01:48:56;4.57;;;2.90;;
51286;SDS011;37364;46.974;18.916;2023-04-25T01:51:26;4.28;;;3.05;;
51286;SDS011;37364;46.974;18.916;2023-04-25T01:54:01;5.10;;;3.00;;
51286;SDS011;37364;46.974;18.916;2023-04-25T01:56:31;5.55;;;3.55;;
51286;SDS011;37364;46.974;18.916;2023-04-25T01:59:04;10.35;;;3.45;;
51286;SDS011;37364;46.974;18.916;2023-04-25T02:02:03;4.07;;;3.17;;
51286;SDS011;37364;46.974;18.916;2023-04-25T02:04:35;13.10;;;3.45;;
51286;SDS011;37364;46.974;18.916;2023-04-25T02:07:05;7.57;;;3.72;;
51286;SDS011;37364;46.974;18.916;2023-04-25T02:09:56;6.88;;;3.47;;
51286;SDS011;37364;46.974;18.916;2023-04-25T02:12:30;4.88;;;2.78;;
51286;SDS011;37364;46.974;18.916;2023-04-25T02:15:24;4.13;;;2.63;;
51286;SDS011;37364;46.974;18.916;2023-04-25T02:17:58;4.35;;;2.53;;
51286;SDS011;37364;46.974;18.916;2023-04-25T02:20:29;7.53;;;3.78;;
51286;SDS011;37364;46.974;18.916;2023-04-25T02:23:01;5.22;;;3.20;;
51286;SDS011;37364;46.974;18.916;2023-04-25T02:25:34;4.72;;;3.60;;
51286;SDS011;37364;46.974;18.916;2023-04-25T02:28:04;9.67;;;3.63;;
51286;SDS011;37364;46.974;18.916;2023-04-25T02:30:35;4.40;;;3.72;;
51286;SDS011;37364;46.974;18.916;2023-04-25T02:33:06;6.38;;;3.47;;
51286;SDS011;37364;46.974;18.916;2023-04-25T02:35:37;3.50;;;2.97;;
51286;SDS011;37364;46.974;18.916;2023-04-25T02:38:07;3.65;;;3.08;;
51286;SDS011;37364;46.974;18.916;2023-04-25T02:40:41;5.80;;;3.75;;
51286;SDS011;37364;46.974;18.916;2023-04-25T02:43:12;13.07;;;3.55;;
51286;SDS011;37364;46.974;18.916;2023-04-25T02:45:43;6.72;;;3.38;;
51286;SDS011;37364;46.974;18.916;2023-04-25T02:48:13;4.45;;;3.72;;
51286;SDS011;37364;46.974;18.916;2023-04-25T02:50:43;3.85;;;3.33;;
51286;SDS011;37364;46.974;18.916;2023-04-25T02:53:14;4.72;;;3.40;;
51286;SDS011;37364;46.974;18.916;2023-04-25T02:55:51;3.78;;;3.17;;
51286;SDS011;37364;46.974;18.916;2023-04-25T02:58:21;3.20;;;3.00;;
51286;SDS011;37364;46.974;18.916;2023-04-25T03:00:52;3.47;;;3.17;;
51286;SDS011;37364;46.974;18.916;2023-04-25T03:03:23;7.72;;;3.50;;
51286;SDS011;37364;46.974;18.916;2023-04-25T03:05:54;6.15;;;3.20;;
51286;SDS011;37364;46.974;18.916;2023-04-25T03:08:30;3.75;;;3.33;;
51286;SDS011;37364;46.974;18.916;2023-04-25T03:11:06;6.40;;;3.33;;
51286;SDS011;37364;46.974;18.916;2023-04-25T03:13:37;3.38;;;3.08;;
51286;SDS011;37364;46.974;18.916;2023-04-25T03:16:08;5.72;;;3.20;;
51286;SDS011;37364;46.974;18.916;2023-04-25T03:18:39;4.78;;;3.30;;
51286;SDS011;37364;46.974;18.916;2023-04-25T03:21:09;9.60;;;2.83;;
51286;SDS011;37364;46.974;18.916;2023-04-25T03:23:39;5.28;;;3.38;;
51286;SDS011;37364;46.974;18.916;2023-04-25T03:26:12;11.07;;;3.67;;
51286;SDS011;37364;46.974;18.916;2023-04-25T03:28:43;3.78;;;3.30;;
51286;SDS011;37364;46.974;18.916;2023-04-25T03:31:13;3.40;;;3.10;;
51286;SDS011;37364;46.974;18.916;2023-04-25T03:33:44;5.35;;;3.55;;
51286;SDS011;37364;46.974;18.916;2023-04-25T03:36:16;4.03;;;3.33;;
51286;SDS011;37364;46.974;18.916;2023-04-25T03:38:46;3.08;;;2.83;;
51286;SDS011;37364;46.974;18.916;2023-04-25T03:41:22;4.05;;;3.38;;
51286;SDS011;37364;46.974;18.916;2023-04-25T03:43:56;4.25;;;3.55;;
51286;SDS011;37364;46.974;18.916;2023-04-25T03:46:27;7.13;;;3.45;;
51286;SDS011;37364;46.974;18.916;2023-04-25T03:48:57;5.38;;;2.92;;
51286;SDS011;37364;46.974;18.916;2023-04-25T03:51:46;5.28;;;3.38;;
51286;SDS011;37364;46.974;18.916;2023-04-25T03:54:16;3.00;;;2.80;;
51286;SDS011;37364;46.974;18.916;2023-04-25T03:57:07;4.97;;;3.47;;
51286;SDS011;37364;46.974;18.916;2023-04-25T03:59:38;7.63;;;3.47;;
51286;SDS011;37364;46.974;18.916;2023-04-25T04:02:11;4.13;;;3.30;;
51286;SDS011;37364;46.974;18.916;2023-04-25T04:04:42;4.95;;;3.50;;
51286;SDS011;37364;46.974;18.916;2023-04-25T04:07:14;5.55;;;4.07;;
51286;SDS011;37364;46.974;18.916;2023-04-25T04:09:46;6.25;;;4.30;;
51286;SDS011;37364;46.974;18.916;2023-04-25T04:12:28;4.70;;;3.75;;
51286;SDS011;37364;46.974;18.916;2023-04-25T04:15:01;4.07;;;3.67;;
51286;SDS011;37364;46.974;18.916;2023-04-25T04:17:33;3.67;;;3.30;;
51286;SDS011;37364;46.974;18.916;2023-04-25T04:20:04;6.32;;;3.88;;
51286;SDS011;37364;46.974;18.916;2023-04-25T04:22:37;6.50;;;4.10;;
51286;SDS011;37364;46.974;18.916;2023-04-25T04:25:10;3.72;;;2.92;;
51286;SDS011;37364;46.974;18.916;2023-04-25T04:28:02;4.20;;;3.47;;
51286;SDS011;37364;46.974;18.916;2023-04-25T04:30:54;15.98;;;5.07;;
51286;SDS011;37364;46.974;18.916;2023-04-25T04:33:25;4.63;;;3.42;;
51286;SDS011;37364;46.974;18.916;2023-04-25T04:35:59;6.68;;;3.85;;
51286;SDS011;37364;46.974;18.916;2023-04-25T04:38:31;4.55;;;3.75;;
51286;SDS011;37364;46.974;18.916;2023-04-25T04:41:03;7.50;;;4.45;;
51286;SDS011;37364;46.974;18.916;2023-04-25T04:44:14;12.20;;;4.05;;
51286;SDS011;37364;46.974;18.916;2023-04-25T04:47:03;9.50;;;4.13;;
51286;SDS011;37364;46.974;18.916;2023-04-25T04:49:54;4.43;;;4.03;;
51286;SDS011;37364;46.974;18.916;2023-04-25T04:52:40;4.78;;;4.25;;
51286;SDS011;37364;46.974;18.916;2023-04-25T04:55:37;6.65;;;3.88;;
51286;SDS011;37364;46.974;18.916;2023-04-25T04:58:31;4.93;;;3.88;;
51286;SDS011;37364;46.974;18.916;2023-04-25T05:01:15;4.30;;;3.80;;
51286;SDS011;37364;46.974;18.916;2023-04-25T05:04:15;4.82;;;4.32;;
51286;SDS011;37364;46.974;18.916;2023-04-25T05:06:57;5.38;;;4.75;;
51286;SDS011;37364;46.974;18.916;2023-04-25T05:09:41;5.13;;;4.50;;
51286;SDS011;37364;46.974;18.916;2023-04-25T05:12:41;16.13;;;4.40;;
51286;SDS011;37364;46.974;18.916;2023-04-25T05:15:11;5.75;;;5.20;;
51286;SDS011;37364;46.974;18.916;2023-04-25T05:18:03;8.50;;;4.72;;
51286;SDS011;37364;46.974;18.916;2023-04-25T05:20:58;6.85;;;4.75;;
51286;SDS011;37364;46.974;18.916;2023-04-25T05:23:47;6.70;;;5.45;;
51286;SDS011;37364;46.974;18.916;2023-04-25T05:26:37;6.90;;;5.50;;
51286;SDS011;37364;46.974;18.916;2023-04-25T05:29:30;5.80;;;5.20;;
51286;SDS011;37364;46.974;18.916;2023-04-25T05:32:13;6.15;;;5.05;;
51286;SDS011;37364;46.974;18.916;2023-04-25T05:34:50;7.18;;;5.28;;
51286;SDS011;37364;46.974;18.916;2023-04-25T05:37:27;8.95;;;5.13;;
51286;SDS011;37364;46.974;18.916;2023-04-25T05:40:08;5.93;;;5.38;;
51286;SDS011;37364;46.974;18.916;2023-04-25T05:42:57;6.13;;;5.55;;
51286;SDS011;37364;46.974;18.916;2023-04-25T05:45:49;12.50;;;5.82;;
51286;SDS011;37364;46.974;18.916;2023-04-25T05:48:39;8.88;;;5.13;;
51286;SDS011;37364;46.974;18.916;2023-04-25T05:51:34;9.35;;;5.15;;
51286;SDS011;37364;46.974;18.916;2023-04-25T05:54:14;7.43;;;5.18;;
51286;SDS011;37364;46.974;18.916;2023-04-25T05:56:44;10.68;;;7.07;;
51286;SDS011;37364;46.974;18.916;2023-04-25T05:59:14;13.52;;;5.93;;
51286;SDS011;37364;46.974;18.916;2023-04-25T06:01:45;12.32;;;5.05;;
51286;SDS011;37364;46.974;18.916;2023-04-25T06:04:16;6.68;;;5.20;;
51286;SDS011;37364;46.974;18.916;2023-04-25T06:06:49;9.27;;;4.82;;
51286;SDS011;37364;46.974;18.916;2023-04-25T06:09:21;6.40;;;4.75;;
51286;SDS011;37364;46.974;18.916;2023-04-25T06:11:53;11.95;;;5.40;;
51286;SDS011;37364;46.974;18.916;2023-04-25T06:14:23;10.45;;;4.93;;
51286;SDS011;37364;46.974;18.916;2023-04-25T06:16:55;4.88;;;4.40;;
51286;SDS011;37364;46.974;18.916;2023-04-25T06:19:26;5.55;;;4.43;;
51286;SDS011;37364;46.974;18.916;2023-04-25T06:21:59;15.73;;;5.32;;
51286;SDS011;37364;46.974;18.916;2023-04-25T06:24:33;8.60;;;4.40;;
51286;SDS011;37364;46.974;18.916;2023-04-25T06:27:04;4.93;;;4.35;;
51286;SDS011;37364;46.974;18.916;2023-04-25T06:29:34;11.70;;;4.80;;
51286;SDS011;37364;46.974;18.916;2023-04-25T06:32:05;10.48;;;4.72;;
51286;SDS011;37364;46.974;18.916;2023-04-25T06:34:35;8.48;;;4.53;;
51286;SDS011;37364;46.974;18.916;2023-04-25T06:37:08;9.52;;;4.15;;
51286;SDS011;37364;46.974;18.916;2023-04-25T06:39:39;5.13;;;4.60;;
51286;SDS011;37364;46.974;18.916;2023-04-25T06:42:10;32.83;;;5.53;;
51286;SDS011;37364;46.974;18.916;2023-04-25T06:44:52;43.47;;;6.22;;
51286;SDS011;37364;46.974;18.916;2023-04-25T06:47:22;10.13;;;4.75;;
51286;SDS011;37364;46.974;18.916;2023-04-25T06:49:54;6.57;;;4.07;;
51286;SDS011;37364;46.974;18.916;2023-04-25T06:52:27;7.00;;;4.60;;
51286;SDS011;37364;46.974;18.916;2023-04-25T06:54:59;7.65;;;4.68;;
51286;SDS011;37364;46.974;18.916;2023-04-25T06:57:43;5.85;;;4.45;;
51286;SDS011;37364;46.974;18.916;2023-04-25T07:00:34;5.50;;;4.65;;
51286;SDS011;37364;46.974;18.916;2023-04-25T07:03:04;16.83;;;4.90;;
51286;SDS011;37364;46.974;18.916;2023-04-25T07:05:35;11.60;;;5.22;;
51286;SDS011;37364;46.974;18.916;2023-04-25T07:08:11;12.00;;;4.93;;
51286;SDS011;37364;46.974;18.916;2023-04-25T07:10:41;9.63;;;5.25;;
51286;SDS011;37364;46.974;18.916;2023-04-25T07:15:45;7.22;;;4.93;;
51286;SDS011;37364;46.974;18.916;2023-04-25T07:18:18;4.43;;;3.90;;
51286;SDS011;37364;46.974;18.916;2023-04-25T07:20:49;5.93;;;4.55;;
51286;SDS011;37364;46.974;18.916;2023-04-25T07:23:26;9.90;;;4.93;;
51286;SDS011;37364;46.974;18.916;2023-04-25T07:25:59;5.82;;;3.97;;
51286;SDS011;37364;46.974;18.916;2023-04-25T07:28:30;5.47;;;4.95;;
51286;SDS011;37364;46.974;18.916;2023-04-25T07:31:01;5.35;;;4.85;;
51286;SDS011;37364;46.974;18.916;2023-04-25T07:33:33;8.25;;;4.68;;
51286;SDS011;37364;46.974;18.916;2023-04-25T07:36:03;4.90;;;4.18;;
51286;SDS011;37364;46.974;18.916;2023-04-25T07:38:37;23.10;;;5.72;;
51286;SDS011;37364;46.974;18.916;2023-04-25T07:41:07;114.15;;;7.20;;
51286;SDS011;37364;46.974;18.916;2023-04-25T07:43:38;31.27;;;5.38;;
51286;SDS011;37364;46.974;18.916;2023-04-25T07:46:08;4.60;;;3.97;;
51286;SDS011;37364;46.974;18.916;2023-04-25T07:48:41;9.45;;;5.05;;
51286;SDS011;37364;46.974;18.916;2023-04-25T07:51:12;16.35;;;4.72;;
51286;SDS011;37364;46.974;18.916;2023-04-25T07:53:45;8.57;;;4.78;;
51286;SDS011;37364;46.974;18.916;2023-04-25T07:56:16;7.32;;;5.10;;
51286;SDS011;37364;46.974;18.916;2023-04-25T07:58:48;23.90;;;6.30;;
51286;SDS011;37364;46.974;18.916;2023-04-25T08:01:20;11.55;;;4.28;;
51286;SDS011;37364;46.974;18.916;2023-04-25T08:03:57;9.77;;;4.70;;
51286;SDS011;37364;46.974;18.916;2023-04-25T08:06:46;6.70;;;5.10;;
51286;SDS011;37364;46.974;18.916;2023-04-25T08:09:25;7.22;;;5.10;;
51286;SDS011;37364;46.974;18.916;2023-04-25T08:11:56;10.77;;;5.03;;
51286;SDS011;37364;46.974;18.916;2023-04-25T08:17:04;7.72;;;5.60;;
51286;SDS011;37364;46.974;18.916;2023-04-25T08:19:39;5.65;;;4.97;;
51286;SDS011;37364;46.974;18.916;2023-04-25T08:22:23;5.75;;;4.97;;
51286;SDS011;37364;46.974;18.916;2023-04-25T08:25:12;8.43;;;4.93;;
51286;SDS011;37364;46.974;18.916;2023-04-25T08:27:42;5.13;;;4.18;;
51286;SDS011;37364;46.974;18.916;2023-04-25T08:30:14;4.95;;;4.45;;
51286;SDS011;37364;46.974;18.916;2023-04-25T08:32:45;12.95;;;4.13;;
51286;SDS011;37364;46.974;18.916;2023-04-25T08:35:35;17.45;;;4.35;;
51286;SDS011;37364;46.974;18.916;2023-04-25T08:38:06;3.38;;;3.05;;
51286;SDS011;37364;46.974;18.916;2023-04-25T08:40:39;7.15;;;3.97;;
51286;SDS011;37364;46.974;18.916;2023-04-25T08:43:14;5.22;;;4.00;;
51286;SDS011;37364;46.974;18.916;2023-04-25T08:45:47;4.77;;;4.37;;
51286;SDS011;37364;46.974;18.916;2023-04-25T08:48:30;5.32;;;3.75;;
51286;SDS011;37364;46.974;18.916;2023-04-25T08:51:03;7.22;;;4.22;;
51286;SDS011;37364;46.974;18.916;2023-04-25T08:53:38;4.18;;;3.83;;
51286;SDS011;37364;46.974;18.916;2023-04-25T08:56:15;3.85;;;3.55;;
51286;SDS011;37364;46.974;18.916;2023-04-25T08:58:47;3.75;;;3.28;;
51286;SDS011;37364;46.974;18.916;2023-04-25T09:01:18;6.15;;;3.60;;
51286;SDS011;37364;46.974;18.916;2023-04-25T09:03:52;6.75;;;3.72;;
51286;SDS011;37364;46.974;18.916;2023-04-25T09:06:23;8.02;;;3.42;;
51286;SDS011;37364;46.974;18.916;2023-04-25T09:08:55;4.68;;;3.35;;
51286;SDS011;37364;46.974;18.916;2023-04-25T09:11:34;5.57;;;3.28;;
51286;SDS011;37364;46.974;18.916;2023-04-25T09:14:15;5.13;;;3.88;;
51286;SDS011;37364;46.974;18.916;2023-04-25T09:17:13;12.02;;;3.80;;
51286;SDS011;37364;46.974;18.916;2023-04-25T09:22:25;10.32;;;3.70;;
51286;SDS011;37364;46.974;18.916;2023-04-25T09:24:57;3.30;;;3.00;;
51286;SDS011;37364;46.974;18.916;2023-04-25T09:27:34;5.93;;;2.80;;
51286;SDS011;37364;46.974;18.916;2023-04-25T09:30:15;5.35;;;2.83;;
51286;SDS011;37364;46.974;18.916;2023-04-25T09:33:03;4.18;;;3.15;;
51286;SDS011;37364;46.974;18.916;2023-04-25T09:35:36;3.30;;;3.00;;
51286;SDS011;37364;46.974;18.916;2023-04-25T09:38:13;5.43;;;3.33;;
51286;SDS011;37364;46.974;18.916;2023-04-25T09:41:14;3.60;;;3.30;;
51286;SDS011;37364;46.974;18.916;2023-04-25T09:43:59;3.50;;;3.00;;
51286;SDS011;37364;46.974;18.916;2023-04-25T09:46:34;5.35;;;3.35;;
51286;SDS011;37364;46.974;18.916;2023-04-25T09:49:11;9.25;;;3.20;;
51286;SDS011;37364;46.974;18.916;2023-04-25T09:51:54;4.70;;;3.45;;
51286;SDS011;37364;46.974;18.916;2023-04-25T09:54:30;8.88;;;3.70;;
51286;SDS011;37364;46.974;18.916;2023-04-25T09:57:10;6.45;;;3.80;;
51286;SDS011;37364;46.974;18.916;2023-04-25T09:59:47;5.57;;;3.88;;
51286;SDS011;37364;46.974;18.916;2023-04-25T10:02:19;10.27;;;3.88;;
51286;SDS011;37364;46.974;18.916;2023-04-25T10:04:54;10.88;;;3.88;;
51286;SDS011;37364;46.974;18.916;2023-04-25T10:07:34;5.75;;;3.83;;
51286;SDS011;37364;46.974;18.916;2023-04-25T10:10:13;3.33;;;3.00;;
51286;SDS011;37364;46.974;18.916;2023-04-25T10:12:45;3.63;;;3.13;;
51286;SDS011;37364;46.974;18.916;2023-04-25T10:15:18;6.93;;;3.95;;
51286;SDS011;37364;46.974;18.916;2023-04-25T10:17:50;4.57;;;3.08;;
51286;SDS011;37364;46.974;18.916;2023-04-25T10:20:21;5.20;;;3.30;;
51286;SDS011;37364;46.974;18.916;2023-04-25T10:22:52;3.67;;;3.38;;
51286;SDS011;37364;46.974;18.916;2023-04-25T10:25:25;5.55;;;3.10;;
51286;SDS011;37364;46.974;18.916;2023-04-25T10:27:55;3.63;;;3.33;;
51286;SDS011;37364;46.974;18.916;2023-04-25T10:30:28;4.10;;;3.15;;
51286;SDS011;37364;46.974;18.916;2023-04-25T10:32:59;3.72;;;3.42;;
51286;SDS011;37364;46.974;18.916;2023-04-25T10:35:29;10.43;;;3.78;;
51286;SDS011;37364;46.974;18.916;2023-04-25T10:38:02;3.30;;;2.75;;
51286;SDS011;37364;46.974;18.916;2023-04-25T10:40:33;4.15;;;2.45;;
51286;SDS011;37364;46.974;18.916;2023-04-25T10:46:16;7.38;;;2.90;;
51286;SDS011;37364;46.974;18.916;2023-04-25T10:48:48;3.40;;;3.10;;
51286;SDS011;37364;46.974;18.916;2023-04-25T10:51:22;11.70;;;2.90;;
51286;SDS011;37364;46.974;18.916;2023-04-25T10:54:00;3.45;;;2.33;;
51286;SDS011;37364;46.974;18.916;2023-04-25T10:56:33;3.03;;;2.78;;
51286;SDS011;37364;46.974;18.916;2023-04-25T11:01:40;17.13;;;2.50;;
51286;SDS011;37364;46.974;18.916;2023-04-25T11:04:21;6.63;;;2.00;;
51286;SDS011;37364;46.974;18.916;2023-04-25T11:06:59;6.18;;;2.08;;
51286;SDS011;37364;46.974;18.916;2023-04-25T11:09:35;3.60;;;2.60;;
51286;SDS011;37364;46.974;18.916;2023-04-25T11:12:09;10.40;;;2.92;;
51286;SDS011;37364;46.974;18.916;2023-04-25T11:14:40;2.85;;;2.65;;
51286;SDS011;37364;46.974;18.916;2023-04-25T11:17:13;2.92;;;2.40;;
51286;SDS011;37364;46.974;18.916;2023-04-25T11:19:43;2.80;;;2.60;;
51286;SDS011;37364;46.974;18.916;2023-04-25T11:22:17;2.60;;;2.40;;
51286;SDS011;37364;46.974;18.916;2023-04-25T11:24:48;3.20;;;2.58;;
51286;SDS011;37364;46.974;18.916;2023-04-25T11:27:18;6.60;;;2.33;;
51286;SDS011;37364;46.974;18.916;2023-04-25T11:29:51;5.97;;;2.10;;
51286;SDS011;37364;46.974;18.916;2023-04-25T11:32:26;2.43;;;2.27;;
51286;SDS011;37364;46.974;18.916;2023-04-25T11:34:57;1.98;;;1.88;;
51286;SDS011;37364;46.974;18.916;2023-04-25T11:37:28;4.25;;;2.63;;
51286;SDS011;37364;46.974;18.916;2023-04-25T11:39:58;5.55;;;2.97;;
51286;SDS011;37364;46.974;18.916;2023-04-25T11:42:28;2.60;;;2.40;;
51286;SDS011;37364;46.974;18.916;2023-04-25T11:45:00;3.88;;;2.75;;
51286;SDS011;37364;46.974;18.916;2023-04-25T11:47:33;4.35;;;2.78;;
51286;SDS011;37364;46.974;18.916;2023-04-25T11:50:04;7.93;;;2.65;;
51286;SDS011;37364;46.974;18.916;2023-04-25T11:52:36;2.47;;;1.83;;
51286;SDS011;37364;46.974;18.916;2023-04-25T11:55:09;4.82;;;2.58;;
51286;SDS011;37364;46.974;18.916;2023-04-25T11:57:42;3.80;;;2.40;;
51286;SDS011;37364;46.974;18.916;2023-04-25T12:00:14;7.63;;;2.20;;
51286;SDS011;37364;46.974;18.916;2023-04-25T12:02:50;7.28;;;2.72;;
51286;SDS011;37364;46.974;18.916;2023-04-25T12:05:23;2.28;;;2.10;;
51286;SDS011;37364;46.974;18.916;2023-04-25T12:08:12;8.38;;;2.72;;
51286;SDS011;37364;46.974;18.916;2023-04-25T12:10:44;6.90;;;2.20;;
51286;SDS011;37364;46.974;18.916;2023-04-25T12:13:19;1.60;;;1.50;;
51286;SDS011;37364;46.974;18.916;2023-04-25T12:15:51;2.72;;;1.85;;
51286;SDS011;37364;46.974;18.916;2023-04-25T12:18:26;6.25;;;2.33;;
51286;SDS011;37364;46.974;18.916;2023-04-25T12:20:57;6.43;;;2.97;;
51286;SDS011;37364;46.974;18.916;2023-04-25T12:23:31;5.15;;;1.98;;
51286;SDS011;37364;46.974;18.916;2023-04-25T12:26:01;2.17;;;2.00;;
51286;SDS011;37364;46.974;18.916;2023-04-25T12:28:32;2.45;;;2.33;;
51286;SDS011;37364;46.974;18.916;2023-04-25T12:31:02;7.65;;;2.10;;
51286;SDS011;37364;46.974;18.916;2023-04-25T12:33:37;2.47;;;1.92;;
51286;SDS011;37364;46.974;18.916;2023-04-25T12:36:09;2.15;;;2.00;;
51286;SDS011;37364;46.974;18.916;2023-04-25T12:38:40;2.38;;;1.85;;
51286;SDS011;37364;46.974;18.916;2023-04-25T12:41:11;2.70;;;1.70;;
51286;SDS011;37364;46.974;18.916;2023-04-25T12:43:41;2.22;;;1.63;;
51286;SDS011;37364;46.974;18.916;2023-04-25T12:46:12;1.95;;;1.50;;
51286;SDS011;37364;46.974;18.916;2023-04-25T12:48:44;6.80;;;1.88;;
51286;SDS011;37364;46.974;18.916;2023-04-25T12:51:15;2.20;;;2.00;;
51286;SDS011;37364;46.974;18.916;2023-04-25T12:53:45;1.60;;;1.33;;
51286;SDS011;37364;46.974;18.916;2023-04-25T12:56:15;1.75;;;1.55;;
51286;SDS011;37364;46.974;18.916;2023-04-25T12:58:50;1.38;;;1.27;;
51286;SDS011;37364;46.974;18.916;2023-04-25T13:01:20;4.95;;;1.33;;
51286;SDS011;37364;46.974;18.916;2023-04-25T13:03:53;1.27;;;1.15;;
51286;SDS011;37364;46.974;18.916;2023-04-25T13:06:26;1.90;;;0.95;;
51286;SDS011;37364;46.974;18.916;2023-04-25T13:08:57;3.53;;;1.23;;
51286;SDS011;37364;46.974;18.916;2023-04-25T13:11:28;12.07;;;1.55;;
51286;SDS011;37364;46.974;18.916;2023-04-25T13:13:58;4.47;;;1.45;;
51286;SDS011;37364;46.974;18.916;2023-04-25T13:16:28;4.13;;;1.13;;
51286;SDS011;37364;46.974;18.916;2023-04-25T13:19:01;20.58;;;1.77;;
51286;SDS011;37364;46.974;18.916;2023-04-25T13:21:32;1.70;;;1.00;;
51286;SDS011;37364;46.974;18.916;2023-04-25T13:24:02;1.20;;;1.13;;
51286;SDS011;37364;46.974;18.916;2023-04-25T13:26:33;2.08;;;1.35;;
51286;SDS011;37364;46.974;18.916;2023-04-25T13:29:03;5.72;;;1.13;;
51286;SDS011;37364;46.974;18.916;2023-04-25T13:31:33;6.18;;;1.67;;
51286;SDS011;37364;46.974;18.916;2023-04-25T13:34:06;4.03;;;1.98;;
51286;SDS011;37364;46.974;18.916;2023-04-25T13:36:39;8.00;;;1.27;;
51286;SDS011;37364;46.974;18.916;2023-04-25T13:39:09;1.10;;;1.10;;
51286;SDS011;37364;46.974;18.916;2023-04-25T13:41:40;2.17;;;1.23;;
51286;SDS011;37364;46.974;18.916;2023-04-25T13:44:10;1.88;;;1.20;;
51286;SDS011;37364;46.974;18.916;2023-04-25T13:46:41;3.00;;;1.83;;
51286;SDS011;37364;46.974;18.916;2023-04-25T13:49:16;21.17;;;1.15;;
51286;SDS011;37364;46.974;18.916;2023-04-25T13:51:46;3.25;;;2.00;;
51286;SDS011;37364;46.974;18.916;2023-04-25T13:54:16;2.10;;;1.30;;
51286;SDS011;37364;46.974;18.916;2023-04-25T13:56:47;13.70;;;1.95;;
51286;SDS011;37364;46.974;18.916;2023-04-25T13:59:17;4.72;;;1.58;;
51286;SDS011;37364;46.974;18.916;2023-04-25T14:01:49;2.28;;;1.35;;
51286;SDS011;37364;46.974;18.916;2023-04-25T14:04:22;1.33;;;1.23;;
51286;SDS011;37364;46.974;18.916;2023-04-25T14:06:53;7.50;;;1.42;;
51286;SDS011;37364;46.974;18.916;2023-04-25T14:09:23;3.28;;;1.40;;
51286;SDS011;37364;46.974;18.916;2023-04-25T14:11:54;2.10;;;1.52;;
51286;SDS011;37364;46.974;18.916;2023-04-25T14:14:25;7.25;;;1.50;;
51286;SDS011;37364;46.974;18.916;2023-04-25T14:16:55;2.97;;;1.75;;
51286;SDS011;37364;46.974;18.916;2023-04-25T14:19:28;4.05;;;1.38;;
51286;SDS011;37364;46.974;18.916;2023-04-25T14:21:59;3.72;;;1.33;;
51286;SDS011;37364;46.974;18.916;2023-04-25T14:24:29;3.13;;;1.80;;
51286;SDS011;37364;46.974;18.916;2023-04-25T14:27:00;4.20;;;1.63;;
51286;SDS011;37364;46.974;18.916;2023-04-25T14:29:30;3.05;;;1.88;;
51286;SDS011;37364;46.974;18.916;2023-04-25T14:32:01;4.57;;;1.90;;
51286;SDS011;37364;46.974;18.916;2023-04-25T14:34:34;2.47;;;1.90;;
51286;SDS011;37364;46.974;18.916;2023-04-25T14:37:04;7.22;;;2.03;;
51286;SDS011;37364;46.974;18.916;2023-04-25T14:39:35;3.83;;;1.60;;
51286;SDS011;37364;46.974;18.916;2023-04-25T14:42:05;20.00;;;1.73;;
51286;SDS011;37364;46.974;18.916;2023-04-25T14:44:35;4.75;;;1.45;;
51286;SDS011;37364;46.974;18.916;2023-04-25T14:47:07;6.63;;;2.28;;
51286;SDS011;37364;46.974;18.916;2023-04-25T14:49:40;3.35;;;2.10;;
51286;SDS011;37364;46.974;18.916;2023-04-25T14:52:19;3.10;;;1.70;;
51286;SDS011;37364;46.974;18.916;2023-04-25T14:54:50;3.20;;;1.98;;
51286;SDS011;37364;46.974;18.916;2023-04-25T14:57:23;3.78;;;2.40;;
51286;SDS011;37364;46.974;18.916;2023-04-25T14:59:53;22.75;;;2.10;;
51286;SDS011;37364;46.974;18.916;2023-04-25T15:02:23;5.55;;;1.90;;
51286;SDS011;37364;46.974;18.916;2023-04-25T15:04:56;2.05;;;1.60;;
51286;SDS011;37364;46.974;18.916;2023-04-25T15:07:28;3.00;;;1.73;;
51286;SDS011;37364;46.974;18.916;2023-04-25T15:09:58;3.70;;;1.65;;
51286;SDS011;37364;46.974;18.916;2023-04-25T15:12:29;2.65;;;1.90;;
51286;SDS011;37364;46.974;18.916;2023-04-25T15:14:59;10.60;;;2.08;;
51286;SDS011;37364;46.974;18.916;2023-04-25T15:17:30;3.05;;;1.52;;
51286;SDS011;37364;46.974;18.916;2023-04-25T15:20:03;4.40;;;1.73;;
51286;SDS011;37364;46.974;18.916;2023-04-25T15:22:36;5.00;;;1.60;;
51286;SDS011;37364;46.974;18.916;2023-04-25T15:25:09;12.48;;;1.73;;
51286;SDS011;37364;46.974;18.916;2023-04-25T15:27:40;1.88;;;1.70;;
51286;SDS011;37364;46.974;18.916;2023-04-25T15:30:11;2.78;;;1.92;;